Time;durP1;ratioP1;P1;durP2;ratioP2;P2;SDS_P1;SDS_P2;PMS_P1;PMS_P2;Temp;Humidity;BMP_temperature;BMP_pressure;BME280_temperature;BME280_humidity;BME280_pressure;Samples;Min_cycle;Max_cycle;Signal;HPM_P1;HPM_P2
2023/10/05 00:01:44;;;;;;;6.90;6.30;;;19.60;99.90;;;;;;5095723;28;20201;-73
2023/10/05 00:04:15;;;;;;;6.60;6.00;;;19.70;99.90;;;;;;5097205;28;20193;-75
2023/10/05 00:06:45;;;;;;;6.88;6.28;;;19.70;99.90;;;;;;5100447;28;20212;-73
2023/10/05 00:09:16;;;;;;;6.65;6.05;;;19.70;99.90;;;;;;5097342;28;20307;-73
2023/10/05 00:11:43;;;;;;;6.43;5.82;;;19.70;99.90;;;;;;5096557;28;20821;-73
2023/10/05 00:14:12;;;;;;;6.47;5.95;;;19.70;99.90;;;;;;5097663;28;20225;-73
2023/10/05 00:16:47;;;;;;;6.43;5.82;;;19.70;99.90;;;;;;5095820;28;20197;-72
2023/10/05 00:19:16;;;;;;;6.53;5.93;;;19.70;99.90;;;;;;5095414;28;20222;-75
2023/10/05 00:21:48;;;;;;;7.43;6.75;;;19.70;99.90;;;;;;5096745;28;20212;-73
2023/10/05 00:24:19;;;;;;;7.47;6.78;;;19.70;99.90;;;;;;5094027;28;21028;-73
2023/10/05 00:26:48;;;;;;;6.40;5.90;;;19.70;99.90;;;;;;5096117;28;20742;-74
2023/10/05 00:29:18;;;;;;;6.93;6.22;;;19.70;99.90;;;;;;5095861;28;20212;-76
2023/10/05 00:31:46;;;;;;;6.60;6.00;;;19.70;99.90;;;;;;5097599;28;20680;-73
2023/10/05 00:34:21;;;;;;;6.10;5.55;;;19.70;99.90;;;;;;5095711;28;20193;-73
2023/10/05 00:36:50;;;;;;;6.50;5.95;;;19.70;99.90;;;;;;5099511;28;20205;-73
2023/10/05 00:39:20;;;;;;;6.28;5.68;;;19.70;99.90;;;;;;5095105;28;20226;-74
2023/10/05 00:41:49;;;;;;;6.97;6.30;;;19.60;99.90;;;;;;5096866;28;20201;-74
2023/10/05 00:44:16;;;;;;;6.80;6.20;;;19.50;99.90;;;;;;5097178;28;20200;-73
2023/10/05 00:46:49;;;;;;;6.63;6.03;;;19.50;99.90;;;;;;5097509;28;20224;-74
2023/10/05 00:49:20;;;;;;;7.05;6.25;;;19.50;99.90;;;;;;5095122;28;20224;-74
2023/10/05 00:51:55;;;;;;;7.45;6.75;;;19.40;99.90;;;;;;5097785;28;20198;-76
2023/10/05 00:54:30;;;;;;;8.10;7.30;;;19.40;99.90;;;;;;5093793;28;20201;-74
2023/10/05 00:56:58;;;;;;;6.90;6.20;;;19.40;99.90;;;;;;5096290;28;20196;-73
2023/10/05 00:59:26;;;;;;;7.10;6.45;;;19.30;99.90;;;;;;5093335;28;20225;-73
2023/10/05 01:02:05;;;;;;;6.43;5.82;;;19.30;99.90;;;;;;5094575;28;20200;-74
2023/10/05 01:04:52;;;;;;;6.90;6.30;;;19.30;99.90;;;;;;5098400;28;20199;-75
2023/10/05 01:07:27;;;;;;;7.05;6.45;;;19.30;99.90;;;;;;5098986;28;20209;-73
2023/10/05 01:10:21;;;;;;;6.65;6.05;;;19.30;99.90;;;;;;5093355;28;20216;-75
2023/10/05 01:12:48;;;;;;;7.30;6.70;;;19.20;99.90;;;;;;5096916;28;20201;-73
2023/10/05 01:15:30;;;;;;;8.13;7.32;;;19.20;99.90;;;;;;5094122;28;20763;-73
2023/10/05 01:17:57;;;;;;;7.38;6.68;;;19.10;99.90;;;;;;5121312;28;20181;-75
2023/10/05 01:20:25;;;;;;;7.80;7.10;;;19.00;99.90;;;;;;5097107;28;20197;-75
2023/10/05 01:22:56;;;;;;;8.50;7.70;;;19.00;99.90;;;;;;5094168;28;20193;-75
2023/10/05 01:25:27;;;;;;;8.20;7.40;;;19.00;99.90;;;;;;5092022;28;20220;-75
2023/10/05 01:27:54;;;;;;;7.43;6.72;;;19.00;99.90;;;;;;5094089;28;20831;-73
2023/10/05 01:30:22;;;;;;;6.50;5.90;;;19.00;99.90;;;;;;5091609;28;20376;-74
2023/10/05 01:32:49;;;;;;;6.80;6.20;;;19.10;99.90;;;;;;5096520;28;20212;-73
2023/10/05 01:35:23;;;;;;;6.78;6.18;;;19.10;99.90;;;;;;5095593;28;20196;-73
2023/10/05 01:37:53;;;;;;;6.80;6.20;;;19.10;99.90;;;;;;5098399;28;20200;-74
2023/10/05 01:40:30;;;;;;;7.38;6.65;;;19.20;99.90;;;;;;5096262;28;20288;-73
2023/10/05 01:42:59;;;;;;;7.57;6.88;;;19.20;99.90;;;;;;5096494;28;20269;-74
2023/10/05 01:45:29;;;;;;;7.32;6.63;;;19.20;99.90;;;;;;5094362;28;20226;-73
2023/10/05 01:48:00;;;;;;;8.35;7.55;;;19.20;99.90;;;;;;5094274;28;22032;-72
2023/10/05 01:50:27;;;;;;;7.90;7.20;;;19.20;99.90;;;;;;5095226;28;20803;-72
2023/10/05 01:53:01;;;;;;;7.80;7.10;;;19.20;99.90;;;;;;5094903;28;20869;-74
2023/10/05 01:55:31;;;;;;;8.00;7.20;;;19.30;99.90;;;;;;5094463;28;20954;-73
2023/10/05 01:57:59;;;;;;;7.15;6.55;;;19.30;99.90;;;;;;5098304;28;20196;-73
2023/10/05 02:00:26;;;;;;;6.47;5.95;;;19.30;99.90;;;;;;5094245;28;20299;-74
2023/10/05 02:02:55;;;;;;;6.88;6.28;;;19.30;99.90;;;;;;5090997;28;20201;-77
2023/10/05 02:05:23;;;;;;;7.30;6.60;;;19.30;99.90;;;;;;5089327;28;20197;-73
2023/10/05 02:07:50;;;;;;;7.03;6.38;;;19.30;99.90;;;;;;5096018;28;20288;-74
2023/10/05 02:10:20;;;;;;;6.68;6.07;;;19.30;99.90;;;;;;5091581;28;20285;-74
2023/10/05 02:12:53;;;;;;;7.28;6.57;;;19.20;99.90;;;;;;5094501;28;20193;-75
2023/10/05 02:15:28;;;;;;;7.07;6.45;;;19.20;99.90;;;;;;5094807;28;20199;-74
2023/10/05 02:17:56;;;;;;;7.13;6.53;;;19.10;99.90;;;;;;5095498;28;20210;-73
2023/10/05 02:20:39;;;;;;;6.88;6.28;;;19.10;99.90;;;;;;5096086;28;20262;-75
2023/10/05 02:23:24;;;;;;;6.95;6.35;;;19.10;99.90;;;;;;5096604;28;20228;-73
2023/10/05 02:25:56;;;;;;;6.82;6.22;;;19.10;99.90;;;;;;5097800;28;20196;-75
2023/10/05 02:28:25;;;;;;;6.95;6.38;;;19.10;99.90;;;;;;5100212;28;20227;-74
2023/10/05 02:30:54;;;;;;;7.43;6.72;;;19.10;99.90;;;;;;5093662;28;20209;-74
2023/10/05 02:33:26;;;;;;;7.50;6.80;;;19.10;99.90;;;;;;5097215;28;20224;-74
2023/10/05 02:36:11;;;;;;;7.25;6.55;;;19.00;99.90;;;;;;5093450;28;20284;-74
2023/10/05 02:38:44;;;;;;;7.18;6.57;;;19.00;99.90;;;;;;5094414;28;20224;-73
2023/10/05 02:41:12;;;;;;;7.95;7.25;;;18.90;99.90;;;;;;5094176;28;20189;-74
2023/10/05 02:43:42;;;;;;;8.52;7.72;;;19.00;99.90;;;;;;5095894;28;20305;-74
2023/10/05 02:46:11;;;;;;;8.35;7.55;;;18.90;99.90;;;;;;5103429;28;20413;-73
2023/10/05 02:48:41;;;;;;;8.32;7.53;;;18.90;99.90;;;;;;5102672;28;20236;-75
2023/10/05 02:51:10;;;;;;;6.95;6.35;;;18.90;99.90;;;;;;5102916;28;20217;-73
2023/10/05 02:53:41;;;;;;;7.60;6.90;;;18.90;99.90;;;;;;5096250;28;20304;-73
2023/10/05 02:56:27;;;;;;;7.70;7.00;;;18.80;99.90;;;;;;5093462;28;20296;-73
2023/10/05 02:58:56;;;;;;;7.63;6.93;;;18.90;99.90;;;;;;5095551;28;20234;-75
2023/10/05 03:01:26;;;;;;;7.82;6.80;;;18.80;99.90;;;;;;5094195;28;20640;-73
2023/10/05 03:03:55;;;;;;;7.40;6.70;;;18.80;99.90;;;;;;5093790;28;20300;-73
2023/10/05 03:06:23;;;;;;;7.88;7.07;;;18.80;99.90;;;;;;5097520;28;20220;-74
2023/10/05 03:08:54;;;;;;;7.90;7.20;;;18.80;99.90;;;;;;5096647;28;20289;-73
2023/10/05 03:11:21;;;;;;;8.35;7.65;;;18.80;99.90;;;;;;5096804;28;20723;-73
2023/10/05 03:13:50;;;;;;;7.72;7.03;;;18.80;99.90;;;;;;5097760;28;20235;-74
2023/10/05 03:16:21;;;;;;;7.85;7.15;;;18.80;99.90;;;;;;5098413;28;20297;-73
2023/10/05 03:18:49;;;;;;;7.47;6.78;;;18.80;99.90;;;;;;5125541;28;20250;-75
2023/10/05 03:21:18;;;;;;;6.93;6.32;;;18.80;99.90;;;;;;5100987;28;20194;-74
2023/10/05 03:23:45;;;;;;;7.97;7.28;;;18.80;99.90;;;;;;5099550;28;20283;-73
2023/10/05 03:26:16;;;;;;;7.35;6.65;;;18.80;99.90;;;;;;5099581;28;20201;-74
2023/10/05 03:28:43;;;;;;;7.20;6.60;;;18.80;99.90;;;;;;5097821;28;20228;-73
2023/10/05 03:31:14;;;;;;;7.55;6.75;;;18.80;99.90;;;;;;5096214;28;20290;-75
2023/10/05 03:33:43;;;;;;;7.25;6.65;;;18.80;99.90;;;;;;5097079;28;20197;-74
2023/10/05 03:36:15;;;;;;;7.18;6.57;;;18.80;99.90;;;;;;5098036;28;20288;-75
2023/10/05 03:38:43;;;;;;;6.53;5.93;;;18.80;99.90;;;;;;5097561;28;20221;-75
2023/10/05 03:41:15;;;;;;;6.72;6.13;;;18.80;99.90;;;;;;5096795;28;20197;-73
2023/10/05 03:43:45;;;;;;;7.18;6.57;;;18.80;99.90;;;;;;5100293;28;20686;-75
2023/10/05 03:46:12;;;;;;;7.38;6.78;;;18.80;99.90;;;;;;5100938;28;20204;-75
2023/10/05 03:48:41;;;;;;;7.28;6.65;;;18.70;99.90;;;;;;5099405;28;20730;-74
2023/10/05 03:51:16;;;;;;;7.05;6.45;;;18.70;99.90;;;;;;5096173;28;20251;-74
2023/10/05 03:53:51;;;;;;;7.55;6.85;;;18.70;99.90;;;;;;5099845;28;20204;-73
2023/10/05 03:56:19;;;;;;;7.15;6.55;;;18.70;99.90;;;;;;5097770;28;20296;-74
2023/10/05 03:58:47;;;;;;;6.90;6.30;;;18.70;99.90;;;;;;5098652;28;20275;-73
2023/10/05 04:01:15;;;;;;;7.25;6.65;;;18.70;99.90;;;;;;5096028;27;20748;-74
2023/10/05 04:03:43;;;;;;;8.35;7.28;;;18.70;99.90;;;;;;5096340;28;20216;-75
2023/10/05 04:06:17;;;;;;;7.47;6.88;;;18.70;99.90;;;;;;5099451;27;21000;-73
2023/10/05 04:08:50;;;;;;;8.25;7.45;;;18.70;99.90;;;;;;5094864;27;20857;-74
2023/10/05 04:11:18;;;;;;;7.22;6.63;;;18.70;99.90;;;;;;5096985;28;20217;-73
2023/10/05 04:13:46;;;;;;;10.20;7.13;;;18.70;99.90;;;;;;5097663;28;20286;-73
2023/10/05 04:16:21;;;;;;;7.40;6.70;;;18.70;99.90;;;;;;5096950;28;20862;-73
2023/10/05 04:18:49;;;;;;;8.00;7.25;;;18.70;99.90;;;;;;5098589;28;20228;-73
2023/10/05 04:21:18;;;;;;;7.18;6.57;;;18.70;99.90;;;;;;5097881;28;20189;-74
2023/10/05 04:23:47;;;;;;;7.55;6.90;;;18.70;99.90;;;;;;5095086;28;20679;-73
2023/10/05 04:26:19;;;;;;;7.68;6.97;;;18.70;99.90;;;;;;5095225;28;20204;-73
2023/10/05 04:28:53;;;;;;;7.80;7.10;;;18.70;99.90;;;;;;5096036;28;20228;-75
2023/10/05 04:31:24;;;;;;;7.40;6.70;;;18.60;99.90;;;;;;5093550;28;20220;-74
2023/10/05 04:33:52;;;;;;;6.75;6.20;;;18.70;99.90;;;;;;5095323;27;20193;-75
2023/10/05 04:36:22;;;;;;;8.02;7.25;;;18.70;99.90;;;;;;5094170;28;20202;-74
2023/10/05 04:38:49;;;;;;;8.35;7.50;;;18.70;99.90;;;;;;5093437;28;20311;-73
2023/10/05 04:41:19;;;;;;;7.97;7.18;;;18.70;99.90;;;;;;5096011;28;20281;-73
2023/10/05 04:43:48;;;;;;;8.23;7.50;;;18.70;99.90;;;;;;5096064;28;20201;-73
2023/10/05 04:46:18;;;;;;;8.10;7.40;;;18.70;99.90;;;;;;5096535;28;20224;-75
2023/10/05 04:48:55;;;;;;;8.00;7.20;;;18.70;99.90;;;;;;5093154;28;20220;-73
2023/10/05 04:51:23;;;;;;;8.52;7.72;;;18.70;99.90;;;;;;5099197;28;20208;-75
2023/10/05 04:53:54;;;;;;;8.20;7.40;;;18.60;99.90;;;;;;5094466;28;20196;-74
2023/10/05 04:56:35;;;;;;;8.43;7.30;;;18.50;99.90;;;;;;5095166;28;20947;-75
2023/10/05 05:02:00;;;;;;;7.60;6.90;;;18.50;99.90;;;;;;5096203;28;20199;-73
2023/10/05 05:04:27;;;;;;;7.50;6.80;;;18.50;99.90;;;;;;5098300;28;20204;-73
2023/10/05 05:06:58;;;;;;;6.50;6.00;;;18.50;99.90;;;;;;5094392;28;20196;-74
2023/10/05 05:09:29;;;;;;;7.72;7.03;;;18.50;99.90;;;;;;5096216;28;20791;-73
2023/10/05 05:12:03;;;;;;;6.80;6.20;;;18.50;99.90;;;;;;5095035;28;20217;-74
2023/10/05 05:14:32;;;;;;;6.82;6.22;;;18.50;99.90;;;;;;5096352;28;20204;-73
2023/10/05 05:17:02;;;;;;;7.28;6.57;;;18.50;99.90;;;;;;5092605;28;20202;-74
2023/10/05 05:19:29;;;;;;;7.22;6.60;;;18.60;99.90;;;;;;5108088;28;20223;-76
2023/10/05 05:21:57;;;;;;;6.97;6.38;;;18.60;99.90;;;;;;5107947;28;20197;-73
2023/10/05 05:24:24;;;;;;;6.93;6.32;;;18.60;99.90;;;;;;5099469;28;20200;-76
2023/10/05 05:26:53;;;;;;;6.80;6.20;;;18.60;99.90;;;;;;5095948;28;20655;-74
2023/10/05 05:29:22;;;;;;;7.97;7.18;;;18.60;99.90;;;;;;5097258;28;20256;-73
2023/10/05 05:31:49;;;;;;;7.72;7.03;;;18.60;99.90;;;;;;5097746;28;20223;-73
2023/10/05 05:34:16;;;;;;;7.97;7.15;;;18.60;99.90;;;;;;5094358;28;20205;-73
2023/10/05 05:36:43;;;;;;;7.65;6.95;;;18.60;99.90;;;;;;5092782;28;20247;-76
2023/10/05 05:39:14;;;;;;;7.13;6.53;;;18.60;99.90;;;;;;5093771;28;20277;-76
2023/10/05 05:41:42;;;;;;;7.43;6.72;;;18.60;99.90;;;;;;5097984;28;20201;-73
2023/10/05 05:44:10;;;;;;;7.10;6.50;;;18.60;99.90;;;;;;5094453;28;20204;-74
2023/10/05 05:46:38;;;;;;;8.15;7.45;;;18.60;99.90;;;;;;5097055;28;20204;-73
2023/10/05 05:49:08;;;;;;;7.22;6.63;;;18.70;99.90;;;;;;5094954;28;20294;-73
2023/10/05 05:51:35;;;;;;;7.45;6.85;;;18.60;99.90;;;;;;5094930;28;20217;-74
2023/10/05 05:54:03;;;;;;;6.43;5.93;;;18.60;99.90;;;;;;5092805;28;20197;-74
2023/10/05 05:56:30;;;;;;;7.22;6.60;;;18.70;99.90;;;;;;5093964;28;20207;-73
2023/10/05 05:58:58;;;;;;;7.43;6.72;;;18.70;99.90;;;;;;5089708;28;20273;-74
2023/10/05 06:01:26;;;;;;;7.57;6.88;;;18.70;99.90;;;;;;5095003;28;20292;-73
2023/10/05 06:03:54;;;;;;;7.78;7.07;;;18.70;99.90;;;;;;5095004;28;20652;-74
2023/10/05 06:06:21;;;;;;;8.25;7.55;;;18.70;99.90;;;;;;5095000;28;20695;-75
2023/10/05 06:08:49;;;;;;;7.03;6.32;;;18.70;99.90;;;;;;5091000;28;20340;-76
2023/10/05 06:11:16;;;;;;;6.75;6.15;;;18.70;99.90;;;;;;5096998;28;20245;-74
2023/10/05 06:13:45;;;;;;;6.43;5.90;;;18.70;99.90;;;;;;5096510;28;20205;-73
2023/10/05 06:16:14;;;;;;;7.30;6.70;;;18.70;99.90;;;;;;5094718;28;20201;-75
2023/10/05 06:18:40;;;;;;;7.97;7.28;;;18.70;99.90;;;;;;5097843;28;20229;-73
2023/10/05 06:21:09;;;;;;;8.48;7.53;;;18.70;99.90;;;;;;5096337;28;20279;-73
2023/10/05 06:23:36;;;;;;;8.15;7.40;;;18.70;99.90;;;;;;5099913;28;20250;-74
2023/10/05 06:26:03;;;;;;;7.28;6.57;;;18.80;99.90;;;;;;5098966;28;20198;-74
2023/10/05 06:28:32;;;;;;;7.75;7.05;;;18.70;99.90;;;;;;5101425;28;20281;-75
2023/10/05 06:31:01;;;;;;;6.93;6.32;;;18.50;99.90;;;;;;5093144;28;20233;-73
2023/10/05 06:33:28;;;;;;;7.55;6.85;;;18.60;99.90;;;;;;5095010;28;20301;-73
2023/10/05 06:35:55;;;;;;;7.10;6.45;;;18.70;99.90;;;;;;5092370;28;20201;-75
2023/10/05 06:38:23;;;;;;;7.57;6.75;;;18.80;99.90;;;;;;5098709;28;20251;-73
2023/10/05 06:40:50;;;;;;;7.05;6.45;;;19.00;99.90;;;;;;5096638;28;20288;-75
2023/10/05 06:43:17;;;;;;;7.40;6.72;;;19.10;99.90;;;;;;5100171;28;20725;-75
2023/10/05 06:45:45;;;;;;;7.75;7.07;;;19.20;99.90;;;;;;5101765;28;20205;-73
2023/10/05 06:48:14;;;;;;;6.85;6.25;;;19.20;99.90;;;;;;5104965;28;20308;-75
2023/10/05 06:50:41;;;;;;;6.93;6.32;;;19.30;99.90;;;;;;5099130;28;20213;-73
2023/10/05 06:53:08;;;;;;;7.18;6.47;;;19.30;99.90;;;;;;5099670;28;20297;-73
2023/10/05 06:55:36;;;;;;;7.43;6.72;;;19.20;99.90;;;;;;5103978;28;20267;-73
2023/10/05 06:58:04;;;;;;;7.88;7.07;;;19.20;99.90;;;;;;5103707;28;20197;-74
2023/10/05 07:00:31;;;;;;;7.05;6.45;;;19.20;99.90;;;;;;5101124;28;20229;-72
2023/10/05 07:03:05;;;;;;;8.15;7.35;;;19.20;99.90;;;;;;5100895;28;20273;-74
2023/10/05 07:05:33;;;;;;;7.50;6.80;;;19.30;99.90;;;;;;5100200;28;20297;-73
2023/10/05 07:08:00;;;;;;;7.07;6.47;;;19.40;99.90;;;;;;5101984;28;20223;-73
2023/10/05 07:10:27;;;;;;;7.10;6.43;;;19.50;99.90;;;;;;5102174;28;20197;-73
2023/10/05 07:12:56;;;;;;;7.28;6.57;;;19.60;99.90;;;;;;5102482;28;20757;-74
2023/10/05 07:15:23;;;;;;;7.97;7.18;;;19.60;99.90;;;;;;5102946;28;20204;-74
2023/10/05 07:17:50;;;;;;;6.72;6.07;;;19.50;99.90;;;;;;5102479;27;20201;-72
2023/10/05 07:20:18;;;;;;;6.88;6.25;;;19.40;99.90;;;;;;5103117;28;20197;-76
2023/10/05 07:22:46;;;;;;;6.72;5.55;;;19.30;99.90;;;;;;5128235;28;20714;-75
2023/10/05 07:25:14;;;;;;;5.57;5.18;;;19.20;99.90;;;;;;5102825;28;20437;-74
2023/10/05 07:27:42;;;;;;;5.43;5.00;;;19.10;99.90;;;;;;5103883;28;20242;-74
2023/10/05 07:30:11;;;;;;;5.68;5.18;;;19.10;99.90;;;;;;5103447;28;20304;-74
2023/10/05 07:32:40;;;;;;;5.78;5.22;;;19.10;99.90;;;;;;5101081;28;20806;-73
2023/10/05 07:35:09;;;;;;;5.28;4.88;;;19.10;99.90;;;;;;5099380;28;20197;-73
2023/10/05 07:37:37;;;;;;;5.70;5.25;;;19.20;99.90;;;;;;5101432;28;20223;-73
2023/10/05 07:40:07;;;;;;;5.43;4.93;;;19.30;99.90;;;;;;5102306;28;20641;-73
2023/10/05 07:42:34;;;;;;;6.18;5.65;;;19.40;99.90;;;;;;5098169;28;20284;-73
2023/10/05 07:45:02;;;;;;;5.68;5.18;;;19.50;99.90;;;;;;5100236;28;20290;-72
2023/10/05 07:47:31;;;;;;;6.03;5.10;;;19.40;99.90;;;;;;5100404;28;20193;-73
2023/10/05 07:49:58;;;;;;;5.40;4.90;;;19.50;99.90;;;;;;5102941;28;20532;-74
2023/10/05 07:52:25;;;;;;;5.45;5.00;;;19.60;99.90;;;;;;5097078;28;20221;-73
2023/10/05 07:54:52;;;;;;;5.60;5.07;;;19.80;99.90;;;;;;5104151;28;20257;-73
2023/10/05 07:57:19;;;;;;;5.13;4.72;;;19.80;99.90;;;;;;5100642;28;20201;-73
2023/10/05 07:59:46;;;;;;;5.43;4.93;;;19.90;99.90;;;;;;5096546;28;21066;-72
2023/10/05 08:02:14;;;;;;;6.00;4.85;;;19.90;99.90;;;;;;5099362;28;20205;-73
2023/10/05 08:04:43;;;;;;;4.82;4.43;;;20.00;99.90;;;;;;5103095;28;20357;-74
2023/10/05 08:07:11;;;;;;;6.43;5.03;;;20.10;99.90;;;;;;5102077;28;20251;-73
2023/10/05 08:09:38;;;;;;;5.30;4.68;;;20.30;99.90;;;;;;5101022;28;20277;-73
2023/10/05 08:12:05;;;;;;;8.15;5.30;;;20.50;99.90;;;;;;5101669;28;20213;-75
2023/10/05 08:14:32;;;;;;;5.10;4.60;;;20.90;99.90;;;;;;5099816;28;20225;-73
2023/10/05 08:16:59;;;;;;;5.55;4.47;;;21.20;99.90;;;;;;5100222;28;20638;-76
2023/10/05 08:19:27;;;;;;;5.75;4.65;;;21.40;99.90;;;;;;5100220;28;20301;-72
2023/10/05 08:21:56;;;;;;;4.53;4.13;;;21.70;99.90;;;;;;5102067;28;20337;-73
2023/10/05 08:24:24;;;;;;;4.45;4.05;;;21.80;99.90;;;;;;5099498;28;20201;-72
2023/10/05 08:26:52;;;;;;;4.85;4.35;;;21.90;99.90;;;;;;5098658;28;20287;-72
2023/10/05 08:29:22;;;;;;;4.35;3.67;;;21.80;99.90;;;;;;5100841;28;20217;-72
2023/10/05 08:31:49;;;;;;;4.63;4.15;;;21.60;99.90;;;;;;5102532;28;20217;-73
2023/10/05 08:34:20;;;;;;;4.47;4.07;;;21.60;99.90;;;;;;5100014;28;20659;-75
2023/10/05 08:36:49;;;;;;;6.63;4.30;;;21.60;99.90;;;;;;5100147;27;20291;-75
2023/10/05 08:39:25;;;;;;;5.57;4.57;;;21.60;99.90;;;;;;5098850;28;20899;-73
2023/10/05 08:41:54;;;;;;;5.90;4.70;;;21.70;99.90;;;;;;5098831;28;20258;-73
2023/10/05 08:44:26;;;;;;;4.80;4.20;;;21.70;99.90;;;;;;5097541;28;20227;-75
2023/10/05 08:46:55;;;;;;;5.53;4.50;;;21.80;99.90;;;;;;5096830;28;20699;-75
2023/10/05 08:49:23;;;;;;;5.32;4.80;;;21.90;99.90;;;;;;5095635;28;20220;-75
2023/10/05 08:51:51;;;;;;;5.45;4.95;;;21.90;99.90;;;;;;5093724;28;20801;-72
2023/10/05 08:54:27;;;;;;;5.38;4.78;;;21.60;99.90;;;;;;5093234;28;20910;-73
2023/10/05 08:56:57;;;;;;;5.45;4.95;;;21.40;99.90;;;;;;5096596;28;20672;-73
2023/10/05 08:59:26;;;;;;;4.80;4.40;;;21.60;99.90;;;;;;5098510;28;20254;-75
2023/10/05 09:01:55;;;;;;;5.53;4.93;;;22.00;99.90;;;;;;5095825;28;20200;-74
2023/10/05 09:04:29;;;;;;;5.78;4.75;;;22.10;99.90;;;;;;5098441;28;20197;-74
2023/10/05 09:06:58;;;;;;;4.63;4.20;;;22.20;99.90;;;;;;5102073;27;20674;-73
2023/10/05 09:09:37;;;;;;;5.00;4.50;;;22.30;99.90;;;;;;5100682;28;20242;-73
2023/10/05 09:12:18;;;;;;;4.50;4.07;;;22.50;99.90;;;;;;5099130;28;20223;-73
2023/10/05 09:14:46;;;;;;;5.32;4.82;;;22.70;99.90;;;;;;5092550;28;20254;-74
2023/10/05 09:17:15;;;;;;;5.18;4.68;;;23.00;99.90;;;;;;5099185;28;20206;-72
2023/10/05 09:19:44;;;;;;;4.88;4.32;;;23.30;99.90;;;;;;5094766;27;20220;-75
2023/10/05 09:22:12;;;;;;;5.20;4.70;;;23.50;99.90;;;;;;5097840;28;20261;-73
2023/10/05 09:24:43;;;;;;;5.40;4.70;;;23.70;99.90;;;;;;5123318;28;20189;-76
2023/10/05 09:27:17;;;;;;;5.00;4.50;;;23.70;99.90;;;;;;5099683;28;20805;-74
2023/10/05 09:29:45;;;;;;;4.85;4.45;;;23.60;99.90;;;;;;5097687;28;20229;-73
2023/10/05 09:32:25;;;;;;;4.72;4.32;;;23.50;99.90;;;;;;5096244;28;20301;-75
2023/10/05 09:34:55;;;;;;;6.60;4.20;;;23.40;99.90;;;;;;5098322;28;20304;-73
2023/10/05 09:37:25;;;;;;;4.55;3.83;;;23.30;99.90;;;;;;5097107;28;20204;-73
2023/10/05 09:39:59;;;;;;;4.95;4.40;;;23.40;99.90;;;;;;5096683;28;20253;-73
2023/10/05 09:42:27;;;;;;;5.20;4.50;;;23.50;99.90;;;;;;5100530;28;20458;-73
2023/10/05 09:44:57;;;;;;;5.18;4.50;;;23.60;99.90;;;;;;5098973;28;20203;-73
2023/10/05 09:47:26;;;;;;;7.20;4.07;;;23.40;99.90;;;;;;5099556;28;20685;-73
2023/10/05 09:49:59;;;;;;;4.63;4.22;;;23.40;99.90;;;;;;5098329;28;20269;-73
2023/10/05 09:52:34;;;;;;;5.55;4.60;;;23.70;99.90;;;;;;5098418;28;20212;-72
2023/10/05 09:55:04;;;;;;;6.72;5.30;;;24.10;99.90;;;;;;5099571;28;20299;-74
2023/10/05 09:57:40;;;;;;;5.43;4.95;;;24.70;99.90;;;;;;5101634;28;20230;-75
2023/10/05 10:00:13;;;;;;;5.45;4.47;;;25.00;99.90;;;;;;5108967;28;20208;-75
2023/10/05 10:02:42;;;;;;;5.53;5.03;;;25.40;99.90;;;;;;5106979;28;20197;-75
2023/10/05 10:05:26;;;;;;;4.90;4.50;;;25.70;99.90;;;;;;5107395;28;20232;-78
2023/10/05 10:07:55;;;;;;;5.53;4.78;;;25.60;99.90;;;;;;5118421;28;20205;-79
2023/10/05 10:10:25;;;;;;;5.30;4.40;;;25.50;99.90;;;;;;5115614;28;20207;-77
2023/10/05 10:12:53;;;;;;;4.95;4.55;;;25.40;99.90;;;;;;5120831;28;20221;-79
2023/10/05 10:15:28;;;;;;;5.40;4.90;;;25.20;99.90;;;;;;5122402;28;20654;-78
2023/10/05 10:18:13;;;;;;;5.15;4.65;;;25.00;99.90;;;;;;5118329;28;20208;-76
2023/10/05 10:20:45;;;;;;;5.22;4.65;;;24.80;99.90;;;;;;5115507;28;20251;-76
2023/10/05 10:23:15;;;;;;;5.38;4.82;;;24.70;99.90;;;;;;5115657;28;20204;-77
2023/10/05 10:25:43;;;;;;;5.90;5.30;;;24.70;99.90;;;;;;5123319;28;20686;-77
2023/10/05 10:28:15;;;;;;;4.95;4.40;;;24.70;99.90;;;;;;5130390;27;20209;-77
2023/10/05 11:18:27;;;;;;;6.18;5.38;;;25.60;99.90;;;;;;5114660;28;20216;-81
2023/10/05 11:20:59;;;;;;;6.75;6.15;;;25.60;99.90;;;;;;5111925;28;20193;-78
2023/10/05 11:23:28;;;;;;;6.28;5.43;;;25.40;99.90;;;;;;5111346;27;20270;-76
2023/10/05 11:29:17;;;;;;;5.72;5.22;;;25.70;99.90;;;;;;5094996;28;20222;-82
2023/10/05 11:31:44;;;;;;;5.90;4.93;;;25.80;99.90;;;;;;5103504;27;20277;-74
2023/10/05 11:34:12;;;;;;;6.05;5.55;;;25.60;99.90;;;;;;5093128;27;20193;-76
2023/10/05 11:36:42;;;;;;;5.47;5.00;;;25.40;99.90;;;;;;5101061;28;20205;-73
2023/10/05 11:39:22;;;;;;;5.65;5.05;;;25.60;99.90;;;;;;5098895;28;20224;-74
2023/10/05 11:41:49;;;;;;;5.45;4.95;;;25.50;99.90;;;;;;5097926;28;20288;-72
2023/10/05 11:44:20;;;;;;;6.22;5.20;;;25.50;99.90;;;;;;5098533;28;20284;-72
2023/10/05 11:46:48;;;;;;;5.70;5.15;;;25.40;99.90;;;;;;5102486;28;20201;-71
2023/10/05 11:49:17;;;;;;;6.30;5.70;;;25.50;99.90;;;;;;5099906;28;20228;-72
2023/10/05 11:51:48;;;;;;;6.57;5.97;;;25.40;99.90;;;;;;5096310;27;20200;-74
2023/10/05 11:54:16;;;;;;;7.05;6.43;;;25.20;99.90;;;;;;5092022;27;20197;-74
2023/10/05 11:56:43;;;;;;;7.10;6.40;;;25.10;99.90;;;;;;5094328;27;20205;-73
2023/10/05 11:59:11;;;;;;;6.82;6.22;;;24.90;99.90;;;;;;5096744;28;20635;-75
2023/10/05 12:01:40;;;;;;;6.88;6.10;;;24.70;99.90;;;;;;5098398;28;20228;-72
2023/10/05 12:04:08;;;;;;;7.15;6.45;;;24.70;99.90;;;;;;5101482;28;20295;-72
2023/10/05 12:06:39;;;;;;;6.80;6.20;;;24.70;99.90;;;;;;5097791;28;20200;-74
2023/10/05 12:09:07;;;;;;;6.50;5.90;;;24.80;99.90;;;;;;5097504;28;20284;-73
2023/10/05 12:11:35;;;;;;;6.78;6.03;;;25.00;99.90;;;;;;5101988;28;20196;-72
2023/10/05 12:14:04;;;;;;;8.45;7.63;;;25.30;99.90;;;;;;5096344;28;20868;-74
2023/10/05 12:16:32;;;;;;;7.35;6.65;;;25.30;99.90;;;;;;5096880;28;20710;-71
2023/10/05 12:19:13;;;;;;;9.27;8.38;;;25.20;99.90;;;;;;5099037;28;20217;-71
2023/10/05 12:21:41;;;;;;;7.60;6.90;;;25.00;99.90;;;;;;5099638;28;20193;-71
2023/10/05 12:24:10;;;;;;;7.00;6.40;;;25.00;99.90;;;;;;5094952;28;20288;-71
2023/10/05 12:26:39;;;;;;;8.60;7.70;;;25.10;99.90;;;;;;5096714;28;20293;-70
2023/10/05 12:29:12;;;;;;;7.95;7.25;;;25.10;99.90;;;;;;5096178;28;20214;-71
2023/10/05 12:31:39;;;;;;;7.65;6.97;;;24.90;99.90;;;;;;5100453;28;20294;-71
2023/10/05 12:34:09;;;;;;;7.80;6.70;;;24.80;99.90;;;;;;5095433;28;20248;-71
2023/10/05 12:36:36;;;;;;;11.65;7.70;;;24.80;99.90;;;;;;5101113;28;20205;-70
2023/10/05 12:39:09;;;;;;;8.98;8.18;;;24.80;99.90;;;;;;5098522;28;20742;-72
2023/10/05 12:41:40;;;;;;;8.13;7.43;;;24.70;99.90;;;;;;5097311;27;20193;-71
2023/10/05 12:44:09;;;;;;;10.55;8.45;;;24.50;99.90;;;;;;5099276;27;20188;-71
2023/10/05 12:46:39;;;;;;;9.27;8.45;;;24.20;99.90;;;;;;5098872;28;20200;-71
2023/10/05 12:49:08;;;;;;;10.82;9.57;;;24.10;99.90;;;;;;5097425;27;20254;-71
2023/10/05 12:51:35;;;;;;;10.23;9.25;;;24.20;99.90;;;;;;5098717;28;20201;-72
2023/10/05 12:54:08;;;;;;;10.57;9.38;;;24.40;99.90;;;;;;5098123;28;20274;-71
2023/10/05 12:56:38;;;;;;;9.93;8.63;;;24.60;99.90;;;;;;5097270;28;20201;-71
2023/10/05 12:59:05;;;;;;;8.45;7.72;;;24.80;99.90;;;;;;5097633;28;20291;-71
2023/10/05 13:01:33;;;;;;;10.07;9.18;;;24.80;99.90;;;;;;5096476;28;20201;-71
2023/10/05 13:04:01;;;;;;;9.63;8.63;;;24.80;99.90;;;;;;5098834;28;20285;-71
2023/10/05 13:06:28;;;;;;;9.02;8.20;;;24.80;99.90;;;;;;5101388;28;20196;-72
2023/10/05 13:08:56;;;;;;;7.93;7.15;;;25.10;99.90;;;;;;5096247;27;20820;-71
2023/10/05 13:11:24;;;;;;;10.00;9.00;;;25.50;99.90;;;;;;5098108;28;20258;-71
2023/10/05 13:13:52;;;;;;;11.85;9.60;;;25.70;99.90;;;;;;5091302;27;20221;-70
2023/10/05 13:16:21;;;;;;;10.70;9.57;;;25.70;99.90;;;;;;5098403;28;20289;-72
2023/10/05 13:18:49;;;;;;;10.43;9.10;;;25.50;99.90;;;;;;5093602;28;21749;-71
2023/10/05 13:21:16;;;;;;;9.65;8.75;;;25.20;99.90;;;;;;5097973;27;20299;-71
2023/10/05 13:23:44;;;;;;;10.52;9.43;;;24.80;99.90;;;;;;5094462;27;20687;-75
2023/10/05 13:26:13;;;;;;;11.32;9.25;;;24.60;99.90;;;;;;5112483;28;20249;-72
2023/10/05 13:28:47;;;;;;;8.80;7.93;;;24.30;99.90;;;;;;5108926;28;20311;-71
2023/10/05 13:31:14;;;;;;;9.75;8.45;;;24.20;99.90;;;;;;5096895;28;20629;-71
2023/10/05 13:33:41;;;;;;;8.25;7.55;;;24.20;99.90;;;;;;5094493;28;20216;-71
2023/10/05 13:36:12;;;;;;;8.15;7.35;;;24.20;99.90;;;;;;5094886;28;20197;-70
2023/10/05 13:38:39;;;;;;;10.23;8.45;;;24.10;99.90;;;;;;5096504;28;20229;-71
2023/10/05 13:41:18;;;;;;;9.23;7.60;;;24.20;99.90;;;;;;5095658;28;20192;-70
2023/10/05 13:43:48;;;;;;;7.55;6.85;;;24.40;99.90;;;;;;5094974;28;20205;-72
2023/10/05 13:46:17;;;;;;;7.47;6.75;;;24.70;99.90;;;;;;5097981;28;20581;-70
2023/10/05 13:48:44;;;;;;;8.68;7.88;;;24.90;99.90;;;;;;5108027;28;20232;-73
2023/10/05 13:51:15;;;;;;;8.43;7.63;;;25.10;99.90;;;;;;5110360;28;20201;-73
2023/10/05 13:53:44;;;;;;;9.52;8.55;;;25.00;99.90;;;;;;5104643;28;20220;-71